sensor_id;sensor_type;location;lat;lon;timestamp;temperature;humidity
61896;DHT22;47835;52.778;5.956;2022-10-01T00:00:15;18.10;97.80
61896;DHT22;47835;52.778;5.956;2022-10-01T00:02:40;18.10;97.80
61896;DHT22;47835;52.778;5.956;2022-10-01T00:05:07;18.10;97.90
61896;DHT22;47835;52.778;5.956;2022-10-01T00:07:42;18.10;97.90
61896;DHT22;47835;52.778;5.956;2022-10-01T00:10:10;18.10;97.90
61896;DHT22;47835;52.778;5.956;2022-10-01T00:12:37;18.10;97.90
61896;DHT22;47835;52.778;5.956;2022-10-01T00:15:04;18.10;98.00
61896;DHT22;47835;52.778;5.956;2022-10-01T00:17:34;18.10;98.00
61896;DHT22;47835;52.778;5.956;2022-10-01T00:20:00;18.10;98.00
61896;DHT22;47835;52.778;5.956;2022-10-01T00:22:26;18.10;98.00
61896;DHT22;47835;52.778;5.956;2022-10-01T00:24:53;18.10;98.10
61896;DHT22;47835;52.778;5.956;2022-10-01T00:27:19;18.10;98.10
61896;DHT22;47835;52.778;5.956;2022-10-01T00:29:45;18.10;98.10
61896;DHT22;47835;52.778;5.956;2022-10-01T00:32:10;18.10;98.10
61896;DHT22;47835;52.778;5.956;2022-10-01T00:34:36;18.20;98.10
61896;DHT22;47835;52.778;5.956;2022-10-01T00:37:01;18.10;98.10
61896;DHT22;47835;52.778;5.956;2022-10-01T00:39:27;18.20;98.30
61896;DHT22;47835;52.778;5.956;2022-10-01T00:41:52;18.10;98.40
61896;DHT22;47835;52.778;5.956;2022-10-01T00:44:37;18.10;98.60
61896;DHT22;47835;52.778;5.956;2022-10-01T00:49:36;18.20;98.80
61896;DHT22;47835;52.778;5.956;2022-10-01T00:52:08;18.20;98.90
61896;DHT22;47835;52.778;5.956;2022-10-01T00:54:45;18.10;98.90
61896;DHT22;47835;52.778;5.956;2022-10-01T00:57:16;18.20;99.00
61896;DHT22;47835;52.778;5.956;2022-10-01T00:59:43;18.10;99.10
61896;DHT22;47835;52.778;5.956;2022-10-01T01:02:10;18.10;99.20
61896;DHT22;47835;52.778;5.956;2022-10-01T01:04:36;18.10;99.10
61896;DHT22;47835;52.778;5.956;2022-10-01T01:07:04;18.10;99.20
61896;DHT22;47835;52.778;5.956;2022-10-01T01:09:37;18.20;99.20
61896;DHT22;47835;52.778;5.956;2022-10-01T01:12:21;18.10;99.30
61896;DHT22;47835;52.778;5.956;2022-10-01T01:15:21;18.10;99.30
61896;DHT22;47835;52.778;5.956;2022-10-01T01:20:28;18.20;99.40
61896;DHT22;47835;52.778;5.956;2022-10-01T01:26:04;18.10;99.40
61896;DHT22;47835;52.778;5.956;2022-10-01T01:28:41;18.10;99.40
61896;DHT22;47835;52.778;5.956;2022-10-01T01:31:14;18.10;99.40
61896;DHT22;47835;52.778;5.956;2022-10-01T01:33:43;18.10;99.40
61896;DHT22;47835;52.778;5.956;2022-10-01T01:36:13;18.10;99.40
61896;DHT22;47835;52.778;5.956;2022-10-01T01:38:57;18.10;99.20
61896;DHT22;47835;52.778;5.956;2022-10-01T01:41:26;18.10;97.90
61896;DHT22;47835;52.778;5.956;2022-10-01T01:43:56;18.10;99.00
61896;DHT22;47835;52.778;5.956;2022-10-01T01:46:26;18.20;99.30
61896;DHT22;47835;52.778;5.956;2022-10-01T01:48:57;18.10;99.30
61896;DHT22;47835;52.778;5.956;2022-10-01T01:51:35;18.10;99.30
61896;DHT22;47835;52.778;5.956;2022-10-01T01:54:04;18.20;99.30
61896;DHT22;47835;52.778;5.956;2022-10-01T01:56:30;18.10;99.20
61896;DHT22;47835;52.778;5.956;2022-10-01T01:58:57;18.10;99.20
61896;DHT22;47835;52.778;5.956;2022-10-01T02:01:34;18.10;99.10
61896;DHT22;47835;52.778;5.956;2022-10-01T02:04:03;18.10;99.10
61896;DHT22;47835;52.778;5.956;2022-10-01T02:06:33;18.10;99.00
61896;DHT22;47835;52.778;5.956;2022-10-01T02:09:30;18.10;99.10
61896;DHT22;47835;52.778;5.956;2022-10-01T02:12:20;18.10;99.00
61896;DHT22;47835;52.778;5.956;2022-10-01T02:15:09;18.20;99.00
61896;DHT22;47835;52.778;5.956;2022-10-01T02:20:43;18.10;98.90
61896;DHT22;47835;52.778;5.956;2022-10-01T02:23:28;18.20;99.30
61896;DHT22;47835;52.778;5.956;2022-10-01T02:26:00;18.10;98.80
61896;DHT22;47835;52.778;5.956;2022-10-01T02:28:30;18.10;98.80
61896;DHT22;47835;52.778;5.956;2022-10-01T02:30:59;18.10;98.70
61896;DHT22;47835;52.778;5.956;2022-10-01T02:33:31;18.10;98.70
61896;DHT22;47835;52.778;5.956;2022-10-01T02:35:59;18.10;98.70
61896;DHT22;47835;52.778;5.956;2022-10-01T02:38:25;18.20;98.70
61896;DHT22;47835;52.778;5.956;2022-10-01T02:40:54;18.10;98.70
61896;DHT22;47835;52.778;5.956;2022-10-01T02:43:27;18.10;98.70
61896;DHT22;47835;52.778;5.956;2022-10-01T02:46:00;18.10;98.70
61896;DHT22;47835;52.778;5.956;2022-10-01T02:48:27;18.10;98.60
61896;DHT22;47835;52.778;5.956;2022-10-01T02:51:17;18.10;98.60
61896;DHT22;47835;52.778;5.956;2022-10-01T02:53:48;18.10;98.60
61896;DHT22;47835;52.778;5.956;2022-10-01T02:56:17;18.10;98.60
61896;DHT22;47835;52.778;5.956;2022-10-01T02:59:06;18.10;98.70
61896;DHT22;47835;52.778;5.956;2022-10-01T03:01:32;18.10;98.60
61896;DHT22;47835;52.778;5.956;2022-10-01T03:03:58;18.10;98.60
61896;DHT22;47835;52.778;5.956;2022-10-01T03:06:24;18.10;98.50
61896;DHT22;47835;52.778;5.956;2022-10-01T03:08:49;18.10;98.50
61896;DHT22;47835;52.778;5.956;2022-10-01T03:11:15;18.10;98.50
61896;DHT22;47835;52.778;5.956;2022-10-01T03:13:40;18.10;98.40
61896;DHT22;47835;52.778;5.956;2022-10-01T03:16:08;18.10;98.50
61896;DHT22;47835;52.778;5.956;2022-10-01T03:18:33;18.10;98.40
61896;DHT22;47835;52.778;5.956;2022-10-01T03:20:59;18.10;98.30
61896;DHT22;47835;52.778;5.956;2022-10-01T03:23:24;18.10;98.30
61896;DHT22;47835;52.778;5.956;2022-10-01T03:25:50;18.10;98.20
61896;DHT22;47835;52.778;5.956;2022-10-01T03:28:15;18.10;98.30
61896;DHT22;47835;52.778;5.956;2022-10-01T03:30:41;18.10;98.30
61896;DHT22;47835;52.778;5.956;2022-10-01T03:33:06;18.10;98.20
61896;DHT22;47835;52.778;5.956;2022-10-01T03:35:32;18.10;98.20
61896;DHT22;47835;52.778;5.956;2022-10-01T03:37:57;18.10;98.40
61896;DHT22;47835;52.778;5.956;2022-10-01T03:40:23;18.10;98.30
61896;DHT22;47835;52.778;5.956;2022-10-01T03:42:49;18.10;98.30
61896;DHT22;47835;52.778;5.956;2022-10-01T03:45:15;18.10;98.30
61896;DHT22;47835;52.778;5.956;2022-10-01T03:47:41;18.10;98.30
61896;DHT22;47835;52.778;5.956;2022-10-01T03:50:07;18.10;98.30
61896;DHT22;47835;52.778;5.956;2022-10-01T03:52:32;18.10;98.20
61896;DHT22;47835;52.778;5.956;2022-10-01T03:54:58;18.10;98.20
61896;DHT22;47835;52.778;5.956;2022-10-01T03:57:25;18.10;98.20
61896;DHT22;47835;52.778;5.956;2022-10-01T03:59:50;18.10;98.20
61896;DHT22;47835;52.778;5.956;2022-10-01T04:02:16;18.10;98.20
61896;DHT22;47835;52.778;5.956;2022-10-01T04:04:41;18.10;98.10
61896;DHT22;47835;52.778;5.956;2022-10-01T04:07:07;18.10;98.10
61896;DHT22;47835;52.778;5.956;2022-10-01T04:09:32;18.10;98.10
61896;DHT22;47835;52.778;5.956;2022-10-01T04:11:58;18.10;98.00
61896;DHT22;47835;52.778;5.956;2022-10-01T04:14:25;18.10;98.10
61896;DHT22;47835;52.778;5.956;2022-10-01T04:16:50;18.10;98.10
61896;DHT22;47835;52.778;5.956;2022-10-01T04:19:17;18.10;98.10
61896;DHT22;47835;52.778;5.956;2022-10-01T04:21:42;18.10;98.10
61896;DHT22;47835;52.778;5.956;2022-10-01T04:24:08;18.10;98.00
61896;DHT22;47835;52.778;5.956;2022-10-01T04:26:34;18.10;98.00
61896;DHT22;47835;52.778;5.956;2022-10-01T04:28:59;18.10;98.00
61896;DHT22;47835;52.778;5.956;2022-10-01T04:31:25;18.10;98.00
61896;DHT22;47835;52.778;5.956;2022-10-01T04:33:55;18.10;98.00
61896;DHT22;47835;52.778;5.956;2022-10-01T04:36:22;18.10;98.00
61896;DHT22;47835;52.778;5.956;2022-10-01T04:38:52;18.10;98.10
61896;DHT22;47835;52.778;5.956;2022-10-01T04:41:18;18.10;98.10
61896;DHT22;47835;52.778;5.956;2022-10-01T04:43:45;18.10;98.10
61896;DHT22;47835;52.778;5.956;2022-10-01T04:46:10;18.10;98.10
61896;DHT22;47835;52.778;5.956;2022-10-01T04:48:36;18.10;98.10
61896;DHT22;47835;52.778;5.956;2022-10-01T04:51:02;18.10;98.20
61896;DHT22;47835;52.778;5.956;2022-10-01T04:53:27;18.10;98.10
61896;DHT22;47835;52.778;5.956;2022-10-01T04:55:53;18.10;98.10
61896;DHT22;47835;52.778;5.956;2022-10-01T04:58:19;18.10;98.50
61896;DHT22;47835;52.778;5.956;2022-10-01T05:00:44;18.00;98.10
61896;DHT22;47835;52.778;5.956;2022-10-01T05:03:10;18.10;98.20
61896;DHT22;47835;52.778;5.956;2022-10-01T05:05:35;18.10;98.20
61896;DHT22;47835;52.778;5.956;2022-10-01T05:08:02;18.10;98.10
61896;DHT22;47835;52.778;5.956;2022-10-01T05:10:28;18.10;98.10
61896;DHT22;47835;52.778;5.956;2022-10-01T05:12:53;18.10;98.10
61896;DHT22;47835;52.778;5.956;2022-10-01T05:15:19;18.10;98.10
61896;DHT22;47835;52.778;5.956;2022-10-01T05:17:45;18.10;98.20
61896;DHT22;47835;52.778;5.956;2022-10-01T05:20:22;18.10;98.20
61896;DHT22;47835;52.778;5.956;2022-10-01T05:22:49;18.10;98.20
61896;DHT22;47835;52.778;5.956;2022-10-01T05:25:15;18.00;98.20
61896;DHT22;47835;52.778;5.956;2022-10-01T05:27:41;18.10;98.20
61896;DHT22;47835;52.778;5.956;2022-10-01T05:30:08;18.10;98.20
61896;DHT22;47835;52.778;5.956;2022-10-01T05:32:35;18.10;98.20
61896;DHT22;47835;52.778;5.956;2022-10-01T05:35:01;18.10;98.20
61896;DHT22;47835;52.778;5.956;2022-10-01T05:37:26;18.10;98.20
61896;DHT22;47835;52.778;5.956;2022-10-01T05:39:52;18.00;98.20
61896;DHT22;47835;52.778;5.956;2022-10-01T05:42:17;18.00;98.20
61896;DHT22;47835;52.778;5.956;2022-10-01T05:44:43;18.10;98.20
61896;DHT22;47835;52.778;5.956;2022-10-01T05:47:12;18.00;98.20
61896;DHT22;47835;52.778;5.956;2022-10-01T05:49:42;18.10;98.20
61896;DHT22;47835;52.778;5.956;2022-10-01T05:52:12;18.10;98.30
61896;DHT22;47835;52.778;5.956;2022-10-01T05:54:38;18.10;98.30
61896;DHT22;47835;52.778;5.956;2022-10-01T05:57:04;18.10;98.30
61896;DHT22;47835;52.778;5.956;2022-10-01T05:59:30;18.00;98.30
61896;DHT22;47835;52.778;5.956;2022-10-01T06:01:55;18.10;98.30
61896;DHT22;47835;52.778;5.956;2022-10-01T06:04:21;18.00;98.70
61896;DHT22;47835;52.778;5.956;2022-10-01T06:06:46;18.10;98.40
61896;DHT22;47835;52.778;5.956;2022-10-01T06:09:12;18.10;98.40
61896;DHT22;47835;52.778;5.956;2022-10-01T06:11:38;18.00;98.70
61896;DHT22;47835;52.778;5.956;2022-10-01T06:14:04;18.10;98.30
61896;DHT22;47835;52.778;5.956;2022-10-01T06:16:30;18.10;98.40
61896;DHT22;47835;52.778;5.956;2022-10-01T06:18:56;18.10;98.40
61896;DHT22;47835;52.778;5.956;2022-10-01T06:21:25;18.10;98.40
61896;DHT22;47835;52.778;5.956;2022-10-01T06:23:51;17.90;96.10
61896;DHT22;47835;52.778;5.956;2022-10-01T06:26:17;17.80;97.40
61896;DHT22;47835;52.778;5.956;2022-10-01T06:28:43;17.80;98.00
61896;DHT22;47835;52.778;5.956;2022-10-01T06:31:09;17.70;98.60
61896;DHT22;47835;52.778;5.956;2022-10-01T06:33:35;17.60;98.90
61896;DHT22;47835;52.778;5.956;2022-10-01T06:36:02;17.50;99.50
61896;DHT22;47835;52.778;5.956;2022-10-01T06:38:28;17.60;99.90
61896;DHT22;47835;52.778;5.956;2022-10-01T06:40:59;17.60;99.90
61896;DHT22;47835;52.778;5.956;2022-10-01T06:43:27;17.50;99.70
61896;DHT22;47835;52.778;5.956;2022-10-01T06:45:54;17.60;99.90
61896;DHT22;47835;52.778;5.956;2022-10-01T06:48:20;17.60;99.90
61896;DHT22;47835;52.778;5.956;2022-10-01T06:50:47;17.60;99.90
61896;DHT22;47835;52.778;5.956;2022-10-01T06:53:14;17.60;99.90
61896;DHT22;47835;52.778;5.956;2022-10-01T06:55:42;17.60;99.90
61896;DHT22;47835;52.778;5.956;2022-10-01T06:58:16;17.60;99.90
61896;DHT22;47835;52.778;5.956;2022-10-01T07:00:42;17.60;99.90
61896;DHT22;47835;52.778;5.956;2022-10-01T07:03:11;17.50;99.90
61896;DHT22;47835;52.778;5.956;2022-10-01T07:05:38;17.60;99.90
61896;DHT22;47835;52.778;5.956;2022-10-01T07:08:05;17.60;99.90
61896;DHT22;47835;52.778;5.956;2022-10-01T07:10:31;17.70;99.90
61896;DHT22;47835;52.778;5.956;2022-10-01T07:13:09;17.80;99.90
61896;DHT22;47835;52.778;5.956;2022-10-01T07:15:35;17.90;99.90
61896;DHT22;47835;52.778;5.956;2022-10-01T07:18:01;18.00;99.90
61896;DHT22;47835;52.778;5.956;2022-10-01T07:20:27;18.00;99.60
61896;DHT22;47835;52.778;5.956;2022-10-01T07:22:57;18.00;99.50
61896;DHT22;47835;52.778;5.956;2022-10-01T07:25:24;18.00;99.80
61896;DHT22;47835;52.778;5.956;2022-10-01T07:27:54;18.00;99.90
61896;DHT22;47835;52.778;5.956;2022-10-01T07:30:20;18.00;99.90
61896;DHT22;47835;52.778;5.956;2022-10-01T07:32:46;17.90;99.90
61896;DHT22;47835;52.778;5.956;2022-10-01T07:35:11;18.00;99.90
61896;DHT22;47835;52.778;5.956;2022-10-01T07:37:38;18.10;99.90
61896;DHT22;47835;52.778;5.956;2022-10-01T07:40:03;18.30;99.90
61896;DHT22;47835;52.778;5.956;2022-10-01T07:42:29;18.40;99.90
61896;DHT22;47835;52.778;5.956;2022-10-01T07:44:55;18.50;99.90
61896;DHT22;47835;52.778;5.956;2022-10-01T07:47:21;18.50;99.90
61896;DHT22;47835;52.778;5.956;2022-10-01T07:49:46;18.50;99.90
61896;DHT22;47835;52.778;5.956;2022-10-01T07:52:12;18.50;99.90
61896;DHT22;47835;52.778;5.956;2022-10-01T07:54:37;18.50;99.90
61896;DHT22;47835;52.778;5.956;2022-10-01T07:57:03;18.50;99.90
61896;DHT22;47835;52.778;5.956;2022-10-01T07:59:29;18.40;99.90
61896;DHT22;47835;52.778;5.956;2022-10-01T08:01:55;18.40;99.90
61896;DHT22;47835;52.778;5.956;2022-10-01T08:04:21;18.40;99.90
61896;DHT22;47835;52.778;5.956;2022-10-01T08:07:06;18.40;99.90
61896;DHT22;47835;52.778;5.956;2022-10-01T08:09:33;18.40;99.90
61896;DHT22;47835;52.778;5.956;2022-10-01T08:11:59;18.40;99.90
61896;DHT22;47835;52.778;5.956;2022-10-01T08:14:24;18.40;99.90
61896;DHT22;47835;52.778;5.956;2022-10-01T08:16:53;18.40;99.90
61896;DHT22;47835;52.778;5.956;2022-10-01T08:19:18;18.40;99.90
61896;DHT22;47835;52.778;5.956;2022-10-01T08:21:44;18.40;99.90
61896;DHT22;47835;52.778;5.956;2022-10-01T08:24:09;18.40;99.90
61896;DHT22;47835;52.778;5.956;2022-10-01T08:26:35;18.40;99.90
61896;DHT22;47835;52.778;5.956;2022-10-01T08:29:00;18.40;99.90
61896;DHT22;47835;52.778;5.956;2022-10-01T08:31:26;18.40;99.90
61896;DHT22;47835;52.778;5.956;2022-10-01T08:33:52;18.40;99.90
61896;DHT22;47835;52.778;5.956;2022-10-01T08:36:18;18.30;99.90
61896;DHT22;47835;52.778;5.956;2022-10-01T08:38:45;18.30;99.90
61896;DHT22;47835;52.778;5.956;2022-10-01T08:41:29;18.30;99.90
61896;DHT22;47835;52.778;5.956;2022-10-01T08:43:56;18.30;99.90
61896;DHT22;47835;52.778;5.956;2022-10-01T08:46:26;18.30;99.90
61896;DHT22;47835;52.778;5.956;2022-10-01T08:52:04;18.40;99.90
61896;DHT22;47835;52.778;5.956;2022-10-01T08:54:56;18.40;99.90
61896;DHT22;47835;52.778;5.956;2022-10-01T08:57:47;18.40;99.90
61896;DHT22;47835;52.778;5.956;2022-10-01T09:00:13;18.40;99.90
61896;DHT22;47835;52.778;5.956;2022-10-01T09:02:41;18.40;99.90
61896;DHT22;47835;52.778;5.956;2022-10-01T09:05:24;18.40;99.90
61896;DHT22;47835;52.778;5.956;2022-10-01T09:08:16;18.40;99.90
61896;DHT22;47835;52.778;5.956;2022-10-01T09:10:46;18.40;99.90
61896;DHT22;47835;52.778;5.956;2022-10-01T09:13:48;18.40;99.90
61896;DHT22;47835;52.778;5.956;2022-10-01T09:16:23;18.40;99.90
61896;DHT22;47835;52.778;5.956;2022-10-01T09:19:15;18.40;99.90
61896;DHT22;47835;52.778;5.956;2022-10-01T09:21:49;18.40;99.90
61896;DHT22;47835;52.778;5.956;2022-10-01T09:26:56;18.40;99.90
61896;DHT22;47835;52.778;5.956;2022-10-01T09:29:29;18.40;99.90
61896;DHT22;47835;52.778;5.956;2022-10-01T09:31:58;18.40;99.90
61896;DHT22;47835;52.778;5.956;2022-10-01T09:34:40;18.50;99.90
61896;DHT22;47835;52.778;5.956;2022-10-01T09:37:35;18.40;99.90
61896;DHT22;47835;52.778;5.956;2022-10-01T09:40:23;18.40;99.90
61896;DHT22;47835;52.778;5.956;2022-10-01T09:42:51;18.50;99.90
61896;DHT22;47835;52.778;5.956;2022-10-01T09:45:17;18.50;99.90
61896;DHT22;47835;52.778;5.956;2022-10-01T09:47:50;18.40;99.90
61896;DHT22;47835;52.778;5.956;2022-10-01T09:50:37;18.50;99.90
61896;DHT22;47835;52.778;5.956;2022-10-01T09:53:04;18.50;99.90
61896;DHT22;47835;52.778;5.956;2022-10-01T09:55:38;18.50;99.90
61896;DHT22;47835;52.778;5.956;2022-10-01T09:58:16;18.50;99.90
61896;DHT22;47835;52.778;5.956;2022-10-01T10:00:43;18.50;99.90
61896;DHT22;47835;52.778;5.956;2022-10-01T10:03:09;18.50;99.90
61896;DHT22;47835;52.778;5.956;2022-10-01T10:05:45;18.50;99.90
61896;DHT22;47835;52.778;5.956;2022-10-01T10:08:35;18.50;99.90
61896;DHT22;47835;52.778;5.956;2022-10-01T10:11:04;18.50;99.90
61896;DHT22;47835;52.778;5.956;2022-10-01T10:13:33;18.50;99.90
61896;DHT22;47835;52.778;5.956;2022-10-01T10:16:26;18.50;99.90
61896;DHT22;47835;52.778;5.956;2022-10-01T10:19:04;18.50;99.90
61896;DHT22;47835;52.778;5.956;2022-10-01T10:21:35;18.50;99.90
61896;DHT22;47835;52.778;5.956;2022-10-01T10:24:06;18.50;99.90
61896;DHT22;47835;52.778;5.956;2022-10-01T10:26:55;18.50;99.90
61896;DHT22;47835;52.778;5.956;2022-10-01T10:29:39;18.50;99.90
61896;DHT22;47835;52.778;5.956;2022-10-01T10:32:18;18.50;99.90
61896;DHT22;47835;52.778;5.956;2022-10-01T10:34:47;18.50;99.90
61896;DHT22;47835;52.778;5.956;2022-10-01T10:37:16;18.50;99.90
61896;DHT22;47835;52.778;5.956;2022-10-01T10:39:47;18.50;99.90
61896;DHT22;47835;52.778;5.956;2022-10-01T10:42:15;18.50;99.90
61896;DHT22;47835;52.778;5.956;2022-10-01T10:44:45;18.50;99.90
61896;DHT22;47835;52.778;5.956;2022-10-01T10:47:16;18.50;99.90
61896;DHT22;47835;52.778;5.956;2022-10-01T10:49:46;18.50;99.90
61896;DHT22;47835;52.778;5.956;2022-10-01T10:52:21;18.50;99.90
61896;DHT22;47835;52.778;5.956;2022-10-01T10:54:49;18.50;99.90
61896;DHT22;47835;52.778;5.956;2022-10-01T10:57:32;18.50;99.90
61896;DHT22;47835;52.778;5.956;2022-10-01T11:00:03;18.50;99.90
61896;DHT22;47835;52.778;5.956;2022-10-01T11:02:31;18.40;99.90
61896;DHT22;47835;52.778;5.956;2022-10-01T11:05:16;18.40;99.90
61896;DHT22;47835;52.778;5.956;2022-10-01T11:07:44;18.40;99.90
61896;DHT22;47835;52.778;5.956;2022-10-01T11:13:15;18.40;99.90
61896;DHT22;47835;52.778;5.956;2022-10-01T11:16:09;18.40;99.90
61896;DHT22;47835;52.778;5.956;2022-10-01T11:30:21;18.50;99.90
61896;DHT22;47835;52.778;5.956;2022-10-01T11:35:36;18.50;99.90
61896;DHT22;47835;52.778;5.956;2022-10-01T11:40:54;18.50;99.90
61896;DHT22;47835;52.778;5.956;2022-10-01T11:43:35;18.50;99.90
61896;DHT22;47835;52.778;5.956;2022-10-01T11:46:14;18.50;99.90
61896;DHT22;47835;52.778;5.956;2022-10-01T11:48:47;18.50;99.90
61896;DHT22;47835;52.778;5.956;2022-10-01T11:51:35;18.50;99.90
61896;DHT22;47835;52.778;5.956;2022-10-01T11:54:08;18.40;99.90
61896;DHT22;47835;52.778;5.956;2022-10-01T11:56:45;18.30;99.90
61896;DHT22;47835;52.778;5.956;2022-10-01T11:59:49;18.20;99.90
61896;DHT22;47835;52.778;5.956;2022-10-01T12:05:09;18.10;99.90
61896;DHT22;47835;52.778;5.956;2022-10-01T12:10:40;18.10;99.90
61896;DHT22;47835;52.778;5.956;2022-10-01T12:16:13;18.10;99.90
61896;DHT22;47835;52.778;5.956;2022-10-01T12:22:14;18.10;99.90
61896;DHT22;47835;52.778;5.956;2022-10-01T12:24:40;18.00;99.90
61896;DHT22;47835;52.778;5.956;2022-10-01T12:27:44;18.00;99.90
61896;DHT22;47835;52.778;5.956;2022-10-01T12:30:26;18.00;99.90
61896;DHT22;47835;52.778;5.956;2022-10-01T12:33:16;18.00;99.90
61896;DHT22;47835;52.778;5.956;2022-10-01T12:38:36;18.00;99.90
61896;DHT22;47835;52.778;5.956;2022-10-01T12:41:18;18.00;99.90
61896;DHT22;47835;52.778;5.956;2022-10-01T12:44:00;18.00;99.90
61896;DHT22;47835;52.778;5.956;2022-10-01T12:58:12;18.10;99.90
61896;DHT22;47835;52.778;5.956;2022-10-01T13:00:59;18.00;99.90
61896;DHT22;47835;52.778;5.956;2022-10-01T13:10:06;18.00;99.90
61896;DHT22;47835;52.778;5.956;2022-10-01T13:15:42;18.00;99.90
61896;DHT22;47835;52.778;5.956;2022-10-01T13:21:13;18.00;99.90
61896;DHT22;47835;52.778;5.956;2022-10-01T13:23:49;18.00;99.90
61896;DHT22;47835;52.778;5.956;2022-10-01T13:29:20;18.00;99.90
61896;DHT22;47835;52.778;5.956;2022-10-01T13:31:58;18.00;99.90
61896;DHT22;47835;52.778;5.956;2022-10-01T13:34:41;18.00;99.90
61896;DHT22;47835;52.778;5.956;2022-10-01T13:39:58;18.00;99.90
61896;DHT22;47835;52.778;5.956;2022-10-01T13:42:44;18.00;99.90
61896;DHT22;47835;52.778;5.956;2022-10-01T13:50:34;18.00;99.90
61896;DHT22;47835;52.778;5.956;2022-10-01T13:53:13;18.00;99.90
61896;DHT22;47835;52.778;5.956;2022-10-01T13:55:42;18.00;99.90
61896;DHT22;47835;52.778;5.956;2022-10-01T13:58:44;18.00;99.90
61896;DHT22;47835;52.778;5.956;2022-10-01T14:11:32;18.00;99.90
61896;DHT22;47835;52.778;5.956;2022-10-01T14:14:22;18.00;99.90
61896;DHT22;47835;52.778;5.956;2022-10-01T14:17:08;18.00;99.90
61896;DHT22;47835;52.778;5.956;2022-10-01T14:19:35;18.00;99.90
61896;DHT22;47835;52.778;5.956;2022-10-01T14:22:41;18.00;99.90
61896;DHT22;47835;52.778;5.956;2022-10-01T14:28:12;18.00;99.90
61896;DHT22;47835;52.778;5.956;2022-10-01T14:36:20;18.00;99.90
61896;DHT22;47835;52.778;5.956;2022-10-01T14:38:46;18.00;99.90
61896;DHT22;47835;52.778;5.956;2022-10-01T14:41:20;18.10;99.90
61896;DHT22;47835;52.778;5.956;2022-10-01T14:43:48;18.00;99.90
61896;DHT22;47835;52.778;5.956;2022-10-01T14:46:16;18.00;99.90
61896;DHT22;47835;52.778;5.956;2022-10-01T14:48:42;18.00;99.90
61896;DHT22;47835;52.778;5.956;2022-10-01T14:51:27;18.00;99.90
61896;DHT22;47835;52.778;5.956;2022-10-01T14:53:54;18.10;99.90
61896;DHT22;47835;52.778;5.956;2022-10-01T14:56:21;18.10;99.90
61896;DHT22;47835;52.778;5.956;2022-10-01T14:58:57;18.10;99.90
61896;DHT22;47835;52.778;5.956;2022-10-01T15:01:26;18.10;99.90
61896;DHT22;47835;52.778;5.956;2022-10-01T15:03:52;18.00;99.90
61896;DHT22;47835;52.778;5.956;2022-10-01T15:06:23;18.10;99.90
61896;DHT22;47835;52.778;5.956;2022-10-01T15:08:52;18.10;99.90
61896;DHT22;47835;52.778;5.956;2022-10-01T15:11:23;18.10;99.90
61896;DHT22;47835;52.778;5.956;2022-10-01T15:13:51;18.10;99.90
61896;DHT22;47835;52.778;5.956;2022-10-01T15:16:20;18.10;99.90
61896;DHT22;47835;52.778;5.956;2022-10-01T15:18:55;18.00;99.90
61896;DHT22;47835;52.778;5.956;2022-10-01T15:21:37;18.10;99.90
61896;DHT22;47835;52.778;5.956;2022-10-01T15:24:06;18.10;99.90
61896;DHT22;47835;52.778;5.956;2022-10-01T15:26:38;18.10;99.90
61896;DHT22;47835;52.778;5.956;2022-10-01T15:29:10;18.10;99.90
61896;DHT22;47835;52.778;5.956;2022-10-01T15:31:37;18.10;99.90
61896;DHT22;47835;52.778;5.956;2022-10-01T15:34:04;18.10;99.90
61896;DHT22;47835;52.778;5.956;2022-10-01T15:36:30;18.10;99.90
61896;DHT22;47835;52.778;5.956;2022-10-01T15:38:56;18.10;99.90
61896;DHT22;47835;52.778;5.956;2022-10-01T15:41:26;18.10;99.90
61896;DHT22;47835;52.778;5.956;2022-10-01T15:43:57;18.10;99.90
61896;DHT22;47835;52.778;5.956;2022-10-01T15:46:27;18.10;99.90
61896;DHT22;47835;52.778;5.956;2022-10-01T15:51:55;18.10;99.90
61896;DHT22;47835;52.778;5.956;2022-10-01T15:54:42;18.10;99.90
61896;DHT22;47835;52.778;5.956;2022-10-01T15:57:14;18.10;99.90
61896;DHT22;47835;52.778;5.956;2022-10-01T15:59:41;18.20;99.90
61896;DHT22;47835;52.778;5.956;2022-10-01T16:02:09;18.20;99.90
61896;DHT22;47835;52.778;5.956;2022-10-01T16:04:38;18.20;99.90
61896;DHT22;47835;52.778;5.956;2022-10-01T16:07:04;18.20;99.90
61896;DHT22;47835;52.778;5.956;2022-10-01T16:09:30;18.30;99.90
61896;DHT22;47835;52.778;5.956;2022-10-01T16:12:04;18.30;99.90
61896;DHT22;47835;52.778;5.956;2022-10-01T16:14:43;18.30;99.90
61896;DHT22;47835;52.778;5.956;2022-10-01T16:22:33;18.30;99.90
61896;DHT22;47835;52.778;5.956;2022-10-01T16:25:02;18.30;99.90
61896;DHT22;47835;52.778;5.956;2022-10-01T16:27:34;18.30;99.90
61896;DHT22;47835;52.778;5.956;2022-10-01T16:32:33;18.30;99.90
61896;DHT22;47835;52.778;5.956;2022-10-01T16:37:47;18.30;99.90
61896;DHT22;47835;52.778;5.956;2022-10-01T16:40:18;18.30;99.90
61896;DHT22;47835;52.778;5.956;2022-10-01T16:42:44;18.40;99.90
61896;DHT22;47835;52.778;5.956;2022-10-01T16:45:14;18.30;99.90
61896;DHT22;47835;52.778;5.956;2022-10-01T16:47:43;18.30;99.90
61896;DHT22;47835;52.778;5.956;2022-10-01T16:50:12;18.30;99.90
61896;DHT22;47835;52.778;5.956;2022-10-01T16:52:38;18.30;99.90
61896;DHT22;47835;52.778;5.956;2022-10-01T16:57:42;18.20;99.90
61896;DHT22;47835;52.778;5.956;2022-10-01T17:00:08;18.20;99.90
61896;DHT22;47835;52.778;5.956;2022-10-01T17:02:34;18.20;99.90
61896;DHT22;47835;52.778;5.956;2022-10-01T17:05:00;18.20;99.90
61896;DHT22;47835;52.778;5.956;2022-10-01T17:07:25;18.20;99.90
61896;DHT22;47835;52.778;5.956;2022-10-01T17:09:51;18.20;99.90
61896;DHT22;47835;52.778;5.956;2022-10-01T17:12:16;18.30;99.90
61896;DHT22;47835;52.778;5.956;2022-10-01T17:14:42;18.20;99.90
61896;DHT22;47835;52.778;5.956;2022-10-01T17:17:07;18.20;99.90
61896;DHT22;47835;52.778;5.956;2022-10-01T17:19:33;18.20;99.90
61896;DHT22;47835;52.778;5.956;2022-10-01T17:21:58;18.10;99.90
61896;DHT22;47835;52.778;5.956;2022-10-01T17:24:24;18.20;99.90
61896;DHT22;47835;52.778;5.956;2022-10-01T17:26:50;18.20;99.90
61896;DHT22;47835;52.778;5.956;2022-10-01T17:29:15;18.10;99.90
61896;DHT22;47835;52.778;5.956;2022-10-01T17:31:41;18.10;99.90
61896;DHT22;47835;52.778;5.956;2022-10-01T17:34:10;18.10;99.90
61896;DHT22;47835;52.778;5.956;2022-10-01T17:36:38;18.10;99.90
61896;DHT22;47835;52.778;5.956;2022-10-01T17:39:03;18.10;99.90
61896;DHT22;47835;52.778;5.956;2022-10-01T17:41:29;18.10;99.90
61896;DHT22;47835;52.778;5.956;2022-10-01T17:43:54;18.10;99.90
61896;DHT22;47835;52.778;5.956;2022-10-01T17:46:21;18.10;99.90
61896;DHT22;47835;52.778;5.956;2022-10-01T17:48:47;18.10;99.90
61896;DHT22;47835;52.778;5.956;2022-10-01T17:51:14;18.10;99.90
61896;DHT22;47835;52.778;5.956;2022-10-01T17:53:40;18.10;99.90